sensor_id;sensor_type;location;lat;lon;timestamp;noise_LAeq;noise_LA_min;noise_LA_max;noise_LA01;noise_LA95
78074;Laerm;67283;50.960;13.856;2024-02-14T00:01:22;39.30;38.29;40.12;;
78074;Laerm;67283;50.960;13.856;2024-02-14T00:03:47;39.36;38.27;40.40;;
78074;Laerm;67283;50.960;13.856;2024-02-14T00:06:13;39.25;38.51;40.07;;
78074;Laerm;67283;50.960;13.856;2024-02-14T00:08:38;51.79;38.19;68.46;;
78074;Laerm;67283;50.960;13.856;2024-02-14T00:11:04;60.42;38.09;78.53;;
78074;Laerm;67283;50.960;13.856;2024-02-14T00:13:29;39.18;38.11;40.04;;
78074;Laerm;67283;50.960;13.856;2024-02-14T00:15:55;39.13;38.29;39.81;;
78074;Laerm;67283;50.960;13.856;2024-02-14T00:18:21;39.20;38.26;40.03;;
78074;Laerm;67283;50.960;13.856;2024-02-14T00:20:48;39.19;38.10;40.17;;
78074;Laerm;67283;50.960;13.856;2024-02-14T00:23:13;39.22;38.39;40.04;;
78074;Laerm;67283;50.960;13.856;2024-02-14T00:25:38;39.21;38.37;40.31;;
78074;Laerm;67283;50.960;13.856;2024-02-14T00:28:04;39.20;38.23;44.43;;
78074;Laerm;67283;50.960;13.856;2024-02-14T00:30:30;39.13;38.34;40.22;;
78074;Laerm;67283;50.960;13.856;2024-02-14T00:32:56;39.09;38.30;39.98;;
78074;Laerm;67283;50.960;13.856;2024-02-14T00:35:21;39.19;38.30;40.04;;
78074;Laerm;67283;50.960;13.856;2024-02-14T00:37:47;39.22;38.26;40.17;;
78074;Laerm;67283;50.960;13.856;2024-02-14T00:40:13;39.32;38.23;40.37;;
78074;Laerm;67283;50.960;13.856;2024-02-14T00:42:38;39.36;38.48;40.09;;
78074;Laerm;67283;50.960;13.856;2024-02-14T00:45:04;39.34;38.47;40.66;;
78074;Laerm;67283;50.960;13.856;2024-02-14T00:47:32;39.31;38.15;40.26;;
78074;Laerm;67283;50.960;13.856;2024-02-14T00:49:58;39.21;38.20;41.01;;
78074;Laerm;67283;50.960;13.856;2024-02-14T00:52:23;39.24;38.15;40.02;;
78074;Laerm;67283;50.960;13.856;2024-02-14T00:54:49;39.24;38.33;40.45;;
78074;Laerm;67283;50.960;13.856;2024-02-14T00:57:14;40.01;38.58;45.60;;
78074;Laerm;67283;50.960;13.856;2024-02-14T00:59:40;39.26;38.12;39.97;;
78074;Laerm;67283;50.960;13.856;2024-02-14T01:02:05;47.45;38.49;62.71;;
78074;Laerm;67283;50.960;13.856;2024-02-14T01:04:30;47.63;38.22;63.30;;
78074;Laerm;67283;50.960;13.856;2024-02-14T01:06:56;41.62;38.36;53.65;;
78074;Laerm;67283;50.960;13.856;2024-02-14T01:09:21;39.20;38.31;40.12;;
78074;Laerm;67283;50.960;13.856;2024-02-14T01:11:47;39.14;38.36;40.06;;
78074;Laerm;67283;50.960;13.856;2024-02-14T01:14:13;39.21;38.16;40.40;;
78074;Laerm;67283;50.960;13.856;2024-02-14T01:16:45;39.27;38.50;40.40;;
78074;Laerm;67283;50.960;13.856;2024-02-14T01:19:11;59.25;38.60;77.88;;
78074;Laerm;67283;50.960;13.856;2024-02-14T01:21:36;54.74;38.53;71.14;;
78074;Laerm;67283;50.960;13.856;2024-02-14T01:24:02;39.38;38.47;40.38;;
78074;Laerm;67283;50.960;13.856;2024-02-14T01:26:27;39.31;38.50;40.11;;
78074;Laerm;67283;50.960;13.856;2024-02-14T01:28:53;39.21;38.47;40.05;;
78074;Laerm;67283;50.960;13.856;2024-02-14T01:31:18;39.15;38.24;40.05;;
78074;Laerm;67283;50.960;13.856;2024-02-14T01:33:45;39.14;38.42;40.10;;
78074;Laerm;67283;50.960;13.856;2024-02-14T01:36:11;39.10;38.18;39.93;;
78074;Laerm;67283;50.960;13.856;2024-02-14T01:38:36;39.14;38.10;40.02;;
78074;Laerm;67283;50.960;13.856;2024-02-14T01:41:02;39.15;38.14;39.92;;
78074;Laerm;67283;50.960;13.856;2024-02-14T01:43:28;39.20;38.25;39.99;;
78074;Laerm;67283;50.960;13.856;2024-02-14T01:45:53;39.23;38.36;44.53;;
78074;Laerm;67283;50.960;13.856;2024-02-14T01:48:19;39.31;38.16;40.40;;
78074;Laerm;67283;50.960;13.856;2024-02-14T01:50:45;53.11;38.37;70.59;;
78074;Laerm;67283;50.960;13.856;2024-02-14T01:53:11;58.55;38.31;77.84;;
78074;Laerm;67283;50.960;13.856;2024-02-14T01:55:36;39.23;38.32;40.07;;
78074;Laerm;67283;50.960;13.856;2024-02-14T01:58:02;39.25;38.12;40.28;;
78074;Laerm;67283;50.960;13.856;2024-02-14T02:00:29;39.25;38.39;40.20;;
78074;Laerm;67283;50.960;13.856;2024-02-14T02:02:55;39.29;38.51;40.22;;
78074;Laerm;67283;50.960;13.856;2024-02-14T02:05:22;52.91;38.37;68.42;;
78074;Laerm;67283;50.960;13.856;2024-02-14T02:07:47;39.67;38.39;47.06;;
78074;Laerm;67283;50.960;13.856;2024-02-14T02:10:13;58.12;38.31;74.54;;
78074;Laerm;67283;50.960;13.856;2024-02-14T02:12:39;51.28;38.26;68.20;;
78074;Laerm;67283;50.960;13.856;2024-02-14T02:15:07;39.23;38.42;40.13;;
78074;Laerm;67283;50.960;13.856;2024-02-14T02:17:38;39.26;38.43;40.08;;
78074;Laerm;67283;50.960;13.856;2024-02-14T02:20:04;39.24;38.25;40.33;;
78074;Laerm;67283;50.960;13.856;2024-02-14T02:22:32;39.30;38.40;42.02;;
78074;Laerm;67283;50.960;13.856;2024-02-14T02:25:00;41.50;38.36;55.97;;
78074;Laerm;67283;50.960;13.856;2024-02-14T02:27:25;53.59;38.83;71.30;;
78074;Laerm;67283;50.960;13.856;2024-02-14T02:29:51;39.60;38.71;40.45;;
78074;Laerm;67283;50.960;13.856;2024-02-14T02:32:16;39.49;38.42;40.35;;
78074;Laerm;67283;50.960;13.856;2024-02-14T02:34:43;49.14;38.66;63.10;;
78074;Laerm;67283;50.960;13.856;2024-02-14T02:37:10;39.45;38.38;40.24;;
78074;Laerm;67283;50.960;13.856;2024-02-14T02:39:36;39.44;38.55;41.00;;
78074;Laerm;67283;50.960;13.856;2024-02-14T02:42:02;39.35;38.40;40.36;;
78074;Laerm;67283;50.960;13.856;2024-02-14T02:44:28;39.32;38.37;40.17;;
78074;Laerm;67283;50.960;13.856;2024-02-14T02:46:53;39.36;38.44;40.11;;
78074;Laerm;67283;50.960;13.856;2024-02-14T02:49:18;39.37;38.61;40.39;;
78074;Laerm;67283;50.960;13.856;2024-02-14T02:51:44;39.48;38.65;50.08;;
78074;Laerm;67283;50.960;13.856;2024-02-14T02:54:09;50.36;38.50;66.26;;
78074;Laerm;67283;50.960;13.856;2024-02-14T02:56:36;39.34;38.30;40.53;;
78074;Laerm;67283;50.960;13.856;2024-02-14T02:59:01;39.33;38.45;40.17;;
78074;Laerm;67283;50.960;13.856;2024-02-14T03:01:28;39.34;38.53;40.28;;
78074;Laerm;67283;50.960;13.856;2024-02-14T03:03:55;39.47;38.71;40.23;;
78074;Laerm;67283;50.960;13.856;2024-02-14T03:06:21;39.44;38.57;40.90;;
78074;Laerm;67283;50.960;13.856;2024-02-14T03:08:46;39.51;38.67;40.49;;
78074;Laerm;67283;50.960;13.856;2024-02-14T03:11:14;54.83;38.89;70.44;;
78074;Laerm;67283;50.960;13.856;2024-02-14T03:13:40;39.59;38.74;40.43;;
78074;Laerm;67283;50.960;13.856;2024-02-14T03:16:06;39.51;38.50;40.56;;
78074;Laerm;67283;50.960;13.856;2024-02-14T03:18:32;39.59;38.55;40.56;;
78074;Laerm;67283;50.960;13.856;2024-02-14T03:20:57;55.89;38.88;69.19;;
78074;Laerm;67283;50.960;13.856;2024-02-14T03:23:23;39.35;38.42;40.48;;
78074;Laerm;67283;50.960;13.856;2024-02-14T03:25:48;39.38;38.58;41.59;;
78074;Laerm;67283;50.960;13.856;2024-02-14T03:28:14;56.39;38.67;70.73;;
78074;Laerm;67283;50.960;13.856;2024-02-14T03:30:39;39.37;38.39;41.12;;
78074;Laerm;67283;50.960;13.856;2024-02-14T03:33:06;39.41;38.43;45.65;;
78074;Laerm;67283;50.960;13.856;2024-02-14T03:35:33;39.49;38.33;40.58;;
78074;Laerm;67283;50.960;13.856;2024-02-14T03:37:59;53.27;38.75;69.86;;
78074;Laerm;67283;50.960;13.856;2024-02-14T03:40:25;52.67;38.99;67.80;;
78074;Laerm;67283;50.960;13.856;2024-02-14T03:42:50;58.01;38.90;71.13;;
78074;Laerm;67283;50.960;13.856;2024-02-14T03:45:16;56.58;39.00;70.62;;
78074;Laerm;67283;50.960;13.856;2024-02-14T03:47:42;51.69;38.82;68.99;;
78074;Laerm;67283;50.960;13.856;2024-02-14T03:50:07;57.97;38.82;78.02;;
78074;Laerm;67283;50.960;13.856;2024-02-14T03:52:33;40.52;38.50;51.19;;
78074;Laerm;67283;50.960;13.856;2024-02-14T03:54:59;40.01;38.67;43.12;;
78074;Laerm;67283;50.960;13.856;2024-02-14T03:57:25;52.46;39.27;67.42;;
78074;Laerm;67283;50.960;13.856;2024-02-14T03:59:50;53.21;38.79;68.23;;
78074;Laerm;67283;50.960;13.856;2024-02-14T04:02:17;53.02;38.57;68.79;;
78074;Laerm;67283;50.960;13.856;2024-02-14T04:04:43;56.28;38.82;71.52;;
78074;Laerm;67283;50.960;13.856;2024-02-14T04:07:09;60.79;39.98;78.46;;
78074;Laerm;67283;50.960;13.856;2024-02-14T04:09:35;56.97;38.82;72.27;;
78074;Laerm;67283;50.960;13.856;2024-02-14T04:12:01;52.98;38.88;68.96;;
78074;Laerm;67283;50.960;13.856;2024-02-14T04:14:26;61.57;39.52;72.22;;
78074;Laerm;67283;50.960;13.856;2024-02-14T04:16:51;49.97;38.85;64.90;;
78074;Laerm;67283;50.960;13.856;2024-02-14T04:19:17;57.77;38.88;71.83;;
78074;Laerm;67283;50.960;13.856;2024-02-14T04:21:43;56.38;39.22;70.42;;
78074;Laerm;67283;50.960;13.856;2024-02-14T04:24:08;59.00;39.61;73.22;;
78074;Laerm;67283;50.960;13.856;2024-02-14T04:26:34;58.52;39.48;71.75;;
78074;Laerm;67283;50.960;13.856;2024-02-14T04:28:59;59.07;39.81;71.08;;
78074;Laerm;67283;50.960;13.856;2024-02-14T04:31:25;59.85;39.39;74.47;;
78074;Laerm;67283;50.960;13.856;2024-02-14T04:33:51;64.38;38.91;79.85;;
78074;Laerm;67283;50.960;13.856;2024-02-14T04:36:18;59.83;39.01;71.87;;
78074;Laerm;67283;50.960;13.856;2024-02-14T04:38:46;59.46;39.87;70.88;;
78074;Laerm;67283;50.960;13.856;2024-02-14T04:41:11;62.07;39.18;72.22;;
78074;Laerm;67283;50.960;13.856;2024-02-14T04:43:36;61.30;41.60;71.82;;
78074;Laerm;67283;50.960;13.856;2024-02-14T04:46:02;60.11;39.08;71.36;;
78074;Laerm;67283;50.960;13.856;2024-02-14T04:48:32;60.69;38.90;76.30;;
78074;Laerm;67283;50.960;13.856;2024-02-14T04:50:57;58.69;39.17;72.63;;
78074;Laerm;67283;50.960;13.856;2024-02-14T04:53:22;60.65;39.20;70.70;;
78074;Laerm;67283;50.960;13.856;2024-02-14T04:55:48;57.75;38.78;71.41;;
78074;Laerm;67283;50.960;13.856;2024-02-14T04:58:13;54.17;38.73;70.64;;
78074;Laerm;67283;50.960;13.856;2024-02-14T05:00:39;61.32;38.89;78.35;;
78074;Laerm;67283;50.960;13.856;2024-02-14T05:03:04;57.26;39.28;72.45;;
78074;Laerm;67283;50.960;13.856;2024-02-14T05:05:30;61.06;39.12;72.35;;
78074;Laerm;67283;50.960;13.856;2024-02-14T05:07:55;61.65;39.67;75.46;;
78074;Laerm;67283;50.960;13.856;2024-02-14T05:10:21;54.49;38.86;72.84;;
78074;Laerm;67283;50.960;13.856;2024-02-14T05:12:46;63.46;42.69;73.48;;
78074;Laerm;67283;50.960;13.856;2024-02-14T05:15:12;61.02;40.68;71.36;;
78074;Laerm;67283;50.960;13.856;2024-02-14T05:17:38;61.93;40.90;76.33;;
78074;Laerm;67283;50.960;13.856;2024-02-14T05:20:05;63.35;40.64;72.43;;
78074;Laerm;67283;50.960;13.856;2024-02-14T05:22:35;64.54;40.10;81.83;;
78074;Laerm;67283;50.960;13.856;2024-02-14T05:25:00;58.16;39.29;70.53;;
78074;Laerm;67283;50.960;13.856;2024-02-14T05:27:25;65.27;40.28;81.91;;
78074;Laerm;67283;50.960;13.856;2024-02-14T05:29:51;62.61;45.95;74.87;;
78074;Laerm;67283;50.960;13.856;2024-02-14T05:32:16;61.59;40.96;73.20;;
78074;Laerm;67283;50.960;13.856;2024-02-14T05:34:42;57.68;39.21;71.13;;
78074;Laerm;67283;50.960;13.856;2024-02-14T05:37:07;62.05;39.62;73.39;;
78074;Laerm;67283;50.960;13.856;2024-02-14T05:39:33;60.61;43.28;72.44;;
78074;Laerm;67283;50.960;13.856;2024-02-14T05:41:59;63.32;42.38;73.20;;
78074;Laerm;67283;50.960;13.856;2024-02-14T05:44:24;58.71;39.18;70.52;;
78074;Laerm;67283;50.960;13.856;2024-02-14T05:46:52;57.66;39.18;70.91;;
78074;Laerm;67283;50.960;13.856;2024-02-14T05:49:17;59.63;39.25;72.59;;
78074;Laerm;67283;50.960;13.856;2024-02-14T05:51:43;59.61;39.74;70.52;;
78074;Laerm;67283;50.960;13.856;2024-02-14T05:54:08;58.76;39.42;73.47;;
78074;Laerm;67283;50.960;13.856;2024-02-14T05:56:34;56.09;39.13;69.90;;
78074;Laerm;67283;50.960;13.856;2024-02-14T05:58:59;61.32;40.75;71.03;;
78074;Laerm;67283;50.960;13.856;2024-02-14T06:01:24;62.56;40.13;76.83;;
78074;Laerm;67283;50.960;13.856;2024-02-14T06:03:50;62.84;40.18;73.25;;
78074;Laerm;67283;50.960;13.856;2024-02-14T06:06:15;60.85;39.51;74.34;;
78074;Laerm;67283;50.960;13.856;2024-02-14T06:08:41;56.56;39.25;74.07;;
78074;Laerm;67283;50.960;13.856;2024-02-14T06:11:06;56.36;39.29;69.98;;
78074;Laerm;67283;50.960;13.856;2024-02-14T06:13:31;62.01;40.07;72.31;;
78074;Laerm;67283;50.960;13.856;2024-02-14T06:15:57;65.39;42.77;78.54;;
78074;Laerm;67283;50.960;13.856;2024-02-14T06:18:22;59.64;40.36;70.30;;
78074;Laerm;67283;50.960;13.856;2024-02-14T06:20:49;61.73;40.71;76.47;;
78074;Laerm;67283;50.960;13.856;2024-02-14T06:23:14;59.65;39.75;72.03;;
78074;Laerm;67283;50.960;13.856;2024-02-14T06:25:40;63.13;41.23;80.29;;
78074;Laerm;67283;50.960;13.856;2024-02-14T06:28:05;59.71;40.13;71.72;;
78074;Laerm;67283;50.960;13.856;2024-02-14T06:30:31;60.97;41.18;73.50;;
78074;Laerm;67283;50.960;13.856;2024-02-14T06:32:56;63.31;40.10;76.87;;
78074;Laerm;67283;50.960;13.856;2024-02-14T06:35:25;62.89;43.02;72.24;;
78074;Laerm;67283;50.960;13.856;2024-02-14T06:37:51;59.93;39.84;71.19;;
78074;Laerm;67283;50.960;13.856;2024-02-14T06:40:16;65.10;40.64;79.99;;
78074;Laerm;67283;50.960;13.856;2024-02-14T06:42:41;61.53;39.68;74.33;;
78074;Laerm;67283;50.960;13.856;2024-02-14T06:45:07;58.02;39.86;70.55;;
78074;Laerm;67283;50.960;13.856;2024-02-14T06:47:32;60.74;40.19;74.64;;
78074;Laerm;67283;50.960;13.856;2024-02-14T06:49:58;63.55;41.84;77.38;;
78074;Laerm;67283;50.960;13.856;2024-02-14T06:52:24;60.11;40.35;70.90;;
78074;Laerm;67283;50.960;13.856;2024-02-14T06:54:49;60.47;39.63;70.27;;
78074;Laerm;67283;50.960;13.856;2024-02-14T06:57:14;62.84;40.93;74.87;;
78074;Laerm;67283;50.960;13.856;2024-02-14T06:59:40;60.03;42.10;70.51;;
78074;Laerm;67283;50.960;13.856;2024-02-14T07:02:05;59.74;39.72;72.71;;
78074;Laerm;67283;50.960;13.856;2024-02-14T07:04:31;59.49;40.78;73.45;;
78074;Laerm;67283;50.960;13.856;2024-02-14T07:06:56;59.32;39.73;71.38;;
78074;Laerm;67283;50.960;13.856;2024-02-14T07:09:22;64.06;43.75;78.92;;
78074;Laerm;67283;50.960;13.856;2024-02-14T07:11:47;59.20;39.58;75.22;;
78074;Laerm;67283;50.960;13.856;2024-02-14T07:14:13;58.82;39.86;73.23;;
78074;Laerm;67283;50.960;13.856;2024-02-14T07:16:38;58.99;39.97;70.45;;
78074;Laerm;67283;50.960;13.856;2024-02-14T07:19:04;62.15;40.19;74.25;;
78074;Laerm;67283;50.960;13.856;2024-02-14T07:21:29;61.53;40.60;75.99;;
78074;Laerm;67283;50.960;13.856;2024-02-14T07:23:54;59.80;41.01;69.97;;
78074;Laerm;67283;50.960;13.856;2024-02-14T07:26:20;60.67;39.48;69.77;;
78074;Laerm;67283;50.960;13.856;2024-02-14T07:28:45;62.24;39.61;75.17;;
78074;Laerm;67283;50.960;13.856;2024-02-14T07:31:11;59.14;39.83;71.48;;
78074;Laerm;67283;50.960;13.856;2024-02-14T07:33:36;59.27;39.70;74.08;;
78074;Laerm;67283;50.960;13.856;2024-02-14T07:36:02;62.63;39.60;79.27;;
78074;Laerm;67283;50.960;13.856;2024-02-14T07:38:27;63.69;44.79;73.98;;
78074;Laerm;67283;50.960;13.856;2024-02-14T07:40:53;68.87;39.86;87.26;;
78074;Laerm;67283;50.960;13.856;2024-02-14T07:43:18;59.85;39.55;71.87;;
78074;Laerm;67283;50.960;13.856;2024-02-14T07:45:44;57.75;39.46;68.61;;
78074;Laerm;67283;50.960;13.856;2024-02-14T07:48:09;51.13;38.76;68.13;;
78074;Laerm;67283;50.960;13.856;2024-02-14T07:50:35;63.03;40.07;77.13;;
78074;Laerm;67283;50.960;13.856;2024-02-14T07:53:01;54.11;39.09;67.02;;
78074;Laerm;67283;50.960;13.856;2024-02-14T07:55:26;58.69;39.42;72.61;;
78074;Laerm;67283;50.960;13.856;2024-02-14T07:57:51;56.84;39.32;70.24;;
78074;Laerm;67283;50.960;13.856;2024-02-14T08:00:17;56.95;39.57;71.39;;
78074;Laerm;67283;50.960;13.856;2024-02-14T08:02:48;62.51;39.93;79.64;;
78074;Laerm;67283;50.960;13.856;2024-02-14T08:05:13;54.82;39.58;70.41;;
78074;Laerm;67283;50.960;13.856;2024-02-14T08:07:38;57.56;39.62;69.92;;
78074;Laerm;67283;50.960;13.856;2024-02-14T08:10:04;62.95;40.82;76.85;;
78074;Laerm;67283;50.960;13.856;2024-02-14T08:12:30;62.90;45.06;75.88;;
78074;Laerm;67283;50.960;13.856;2024-02-14T08:14:55;66.07;43.17;80.52;;
78074;Laerm;67283;50.960;13.856;2024-02-14T08:17:21;61.00;41.83;72.45;;
78074;Laerm;67283;50.960;13.856;2024-02-14T08:19:46;59.68;40.81;70.17;;
78074;Laerm;67283;50.960;13.856;2024-02-14T08:22:12;60.95;39.95;79.46;;
78074;Laerm;67283;50.960;13.856;2024-02-14T08:24:37;62.13;39.94;77.35;;
78074;Laerm;67283;50.960;13.856;2024-02-14T08:27:02;60.76;38.85;72.55;;
78074;Laerm;67283;50.960;13.856;2024-02-14T08:29:31;55.61;38.65;68.70;;
78074;Laerm;67283;50.960;13.856;2024-02-14T08:31:57;58.46;38.83;72.98;;
78074;Laerm;67283;50.960;13.856;2024-02-14T08:34:22;59.43;39.18;73.01;;
78074;Laerm;67283;50.960;13.856;2024-02-14T08:36:48;60.27;38.62;72.37;;
78074;Laerm;67283;50.960;13.856;2024-02-14T08:39:13;57.80;38.49;70.59;;
78074;Laerm;67283;50.960;13.856;2024-02-14T08:41:39;61.30;39.11;69.89;;
78074;Laerm;67283;50.960;13.856;2024-02-14T08:44:08;60.25;38.52;71.85;;
78074;Laerm;67283;50.960;13.856;2024-02-14T08:46:33;61.42;38.45;77.81;;
78074;Laerm;67283;50.960;13.856;2024-02-14T08:49:01;61.06;39.17;71.97;;
78074;Laerm;67283;50.960;13.856;2024-02-14T08:51:34;58.54;38.60;73.18;;
78074;Laerm;67283;50.960;13.856;2024-02-14T08:54:00;54.77;38.63;69.40;;
78074;Laerm;67283;50.960;13.856;2024-02-14T08:56:27;57.46;38.83;68.41;;
78074;Laerm;67283;50.960;13.856;2024-02-14T08:58:53;61.34;39.80;76.22;;
78074;Laerm;67283;50.960;13.856;2024-02-14T09:01:18;63.58;38.76;80.92;;
78074;Laerm;67283;50.960;13.856;2024-02-14T09:03:45;54.15;38.89;66.42;;
78074;Laerm;67283;50.960;13.856;2024-02-14T09:06:14;63.94;39.95;79.18;;
78074;Laerm;67283;50.960;13.856;2024-02-14T09:08:43;59.25;39.52;73.43;;
78074;Laerm;67283;50.960;13.856;2024-02-14T09:11:08;61.85;39.04;73.12;;
78074;Laerm;67283;50.960;13.856;2024-02-14T09:13:34;60.17;39.05;73.70;;
78074;Laerm;67283;50.960;13.856;2024-02-14T09:15:59;57.07;38.56;71.34;;
78074;Laerm;67283;50.960;13.856;2024-02-14T09:18:25;57.44;38.78;68.70;;
78074;Laerm;67283;50.960;13.856;2024-02-14T09:20:50;58.75;38.90;69.20;;
78074;Laerm;67283;50.960;13.856;2024-02-14T09:23:16;58.57;38.69;72.33;;
78074;Laerm;67283;50.960;13.856;2024-02-14T09:25:45;59.81;38.76;70.76;;
78074;Laerm;67283;50.960;13.856;2024-02-14T09:28:12;59.03;38.91;72.97;;
78074;Laerm;67283;50.960;13.856;2024-02-14T09:30:39;60.53;40.44;73.75;;
78074;Laerm;67283;50.960;13.856;2024-02-14T09:33:04;62.44;38.90;77.20;;
78074;Laerm;67283;50.960;13.856;2024-02-14T09:35:30;58.48;39.16;68.42;;
78074;Laerm;67283;50.960;13.856;2024-02-14T09:37:55;61.31;38.50;71.39;;
78074;Laerm;67283;50.960;13.856;2024-02-14T09:40:21;58.41;38.56;68.73;;
78074;Laerm;67283;50.960;13.856;2024-02-14T09:42:50;55.70;38.26;68.83;;
78074;Laerm;67283;50.960;13.856;2024-02-14T09:45:18;56.78;38.80;72.08;;
78074;Laerm;67283;50.960;13.856;2024-02-14T09:47:44;56.20;39.49;68.83;;
78074;Laerm;67283;50.960;13.856;2024-02-14T09:50:10;58.15;38.78;72.22;;
78074;Laerm;67283;50.960;13.856;2024-02-14T09:52:37;56.04;39.17;66.26;;
78074;Laerm;67283;50.960;13.856;2024-02-14T09:55:03;59.24;39.16;70.29;;
78074;Laerm;67283;50.960;13.856;2024-02-14T09:57:30;57.24;39.00;70.00;;
78074;Laerm;67283;50.960;13.856;2024-02-14T09:59:57;52.18;37.95;67.54;;
78074;Laerm;67283;50.960;13.856;2024-02-14T10:02:23;58.47;38.22;79.37;;
78074;Laerm;67283;50.960;13.856;2024-02-14T10:04:48;57.79;38.58;71.96;;
78074;Laerm;67283;50.960;13.856;2024-02-14T10:07:14;62.91;43.01;73.56;;
78074;Laerm;67283;50.960;13.856;2024-02-14T10:09:40;62.00;44.46;71.50;;
78074;Laerm;67283;50.960;13.856;2024-02-14T10:12:06;63.03;38.24;77.13;;
78074;Laerm;67283;50.960;13.856;2024-02-14T10:14:32;56.95;38.06;75.42;;
78074;Laerm;67283;50.960;13.856;2024-02-14T10:16:58;62.75;39.71;79.19;;
78074;Laerm;67283;50.960;13.856;2024-02-14T10:19:23;56.99;40.56;70.78;;
78074;Laerm;67283;50.960;13.856;2024-02-14T10:21:58;61.96;40.11;76.20;;
78074;Laerm;67283;50.960;13.856;2024-02-14T10:24:27;64.79;39.93;82.98;;
78074;Laerm;67283;50.960;13.856;2024-02-14T10:26:53;60.89;39.36;74.69;;
78074;Laerm;67283;50.960;13.856;2024-02-14T10:29:19;58.41;38.45;71.30;;
78074;Laerm;67283;50.960;13.856;2024-02-14T10:31:45;59.89;38.88;72.68;;
78074;Laerm;67283;50.960;13.856;2024-02-14T10:34:11;58.19;38.55;71.28;;
78074;Laerm;67283;50.960;13.856;2024-02-14T10:36:37;60.68;40.42;74.69;;
78074;Laerm;67283;50.960;13.856;2024-02-14T10:39:05;56.01;39.67;69.57;;
78074;Laerm;67283;50.960;13.856;2024-02-14T10:41:32;59.22;40.09;68.68;;
78074;Laerm;67283;50.960;13.856;2024-02-14T10:44:03;58.46;39.88;72.33;;
78074;Laerm;67283;50.960;13.856;2024-02-14T10:46:31;62.29;41.11;73.60;;
78074;Laerm;67283;50.960;13.856;2024-02-14T10:49:03;58.36;38.68;71.06;;
78074;Laerm;67283;50.960;13.856;2024-02-14T10:51:33;59.85;39.08;72.13;;
78074;Laerm;67283;50.960;13.856;2024-02-14T10:54:00;54.45;39.05;68.60;;
78074;Laerm;67283;50.960;13.856;2024-02-14T10:56:28;58.03;39.57;76.23;;
78074;Laerm;67283;50.960;13.856;2024-02-14T10:58:56;61.59;41.23;78.51;;
78074;Laerm;67283;50.960;13.856;2024-02-14T11:01:22;60.27;39.77;71.32;;
78074;Laerm;67283;50.960;13.856;2024-02-14T11:03:50;60.43;40.19;70.78;;
78074;Laerm;67283;50.960;13.856;2024-02-14T11:06:16;61.85;38.88;78.25;;
78074;Laerm;67283;50.960;13.856;2024-02-14T11:09:03;63.10;39.49;77.70;;
78074;Laerm;67283;50.960;13.856;2024-02-14T11:11:32;59.38;38.84;70.96;;
78074;Laerm;67283;50.960;13.856;2024-02-14T11:13:58;59.76;38.88;72.00;;
78074;Laerm;67283;50.960;13.856;2024-02-14T11:16:27;66.52;41.06;80.69;;
78074;Laerm;67283;50.960;13.856;2024-02-14T11:19:14;61.69;39.46;74.50;;
78074;Laerm;67283;50.960;13.856;2024-02-14T11:21:40;56.96;39.99;70.93;;
78074;Laerm;67283;50.960;13.856;2024-02-14T11:24:10;61.17;40.78;76.01;;
78074;Laerm;67283;50.960;13.856;2024-02-14T11:26:40;59.78;38.59;74.43;;
78074;Laerm;67283;50.960;13.856;2024-02-14T11:29:05;56.61;38.84;68.32;;
78074;Laerm;67283;50.960;13.856;2024-02-14T11:31:33;56.83;39.24;69.75;;
78074;Laerm;67283;50.960;13.856;2024-02-14T11:34:02;57.49;38.50;72.25;;
78074;Laerm;67283;50.960;13.856;2024-02-14T11:36:28;56.58;38.57;69.29;;
78074;Laerm;67283;50.960;13.856;2024-02-14T11:38:54;62.81;39.41;73.41;;
78074;Laerm;67283;50.960;13.856;2024-02-14T11:41:20;54.76;38.33;69.17;;
78074;Laerm;67283;50.960;13.856;2024-02-14T11:43:52;60.49;38.40;72.91;;
78074;Laerm;67283;50.960;13.856;2024-02-14T11:46:17;60.45;39.62;72.58;;
78074;Laerm;67283;50.960;13.856;2024-02-14T11:48:43;57.32;38.61;70.93;;
78074;Laerm;67283;50.960;13.856;2024-02-14T11:51:11;62.47;38.74;75.79;;
78074;Laerm;67283;50.960;13.856;2024-02-14T11:53:36;59.81;38.78;72.12;;
78074;Laerm;67283;50.960;13.856;2024-02-14T11:56:02;64.96;39.13;81.79;;
78074;Laerm;67283;50.960;13.856;2024-02-14T11:58:27;57.55;38.72;69.93;;
78074;Laerm;67283;50.960;13.856;2024-02-14T12:00:53;57.24;40.75;69.15;;
78074;Laerm;67283;50.960;13.856;2024-02-14T12:03:19;64.00;39.42;79.69;;
78074;Laerm;67283;50.960;13.856;2024-02-14T12:05:46;56.47;38.61;67.58;;
78074;Laerm;67283;50.960;13.856;2024-02-14T12:08:12;58.59;39.65;70.12;;
78074;Laerm;67283;50.960;13.856;2024-02-14T12:10:38;56.12;38.57;69.23;;
78074;Laerm;67283;50.960;13.856;2024-02-14T12:13:12;59.97;38.82;72.75;;
78074;Laerm;67283;50.960;13.856;2024-02-14T12:15:41;62.84;39.22;76.83;;
78074;Laerm;67283;50.960;13.856;2024-02-14T12:18:07;49.78;38.60;65.37;;
78074;Laerm;67283;50.960;13.856;2024-02-14T12:20:34;61.55;39.03;72.54;;
78074;Laerm;67283;50.960;13.856;2024-02-14T12:22:59;55.76;38.58;71.20;;
78074;Laerm;67283;50.960;13.856;2024-02-14T12:25:25;58.73;38.48;70.90;;
78074;Laerm;67283;50.960;13.856;2024-02-14T12:27:51;59.34;38.98;72.07;;
78074;Laerm;67283;50.960;13.856;2024-02-14T12:30:18;61.92;39.31;74.67;;
78074;Laerm;67283;50.960;13.856;2024-02-14T12:32:45;58.74;40.27;70.56;;
78074;Laerm;67283;50.960;13.856;2024-02-14T12:35:11;63.04;38.52;76.85;;
78074;Laerm;67283;50.960;13.856;2024-02-14T12:37:36;56.08;39.01;69.50;;
78074;Laerm;67283;50.960;13.856;2024-02-14T12:40:02;59.29;38.62;73.50;;
78074;Laerm;67283;50.960;13.856;2024-02-14T12:42:29;61.46;39.32;75.11;;
78074;Laerm;67283;50.960;13.856;2024-02-14T12:44:54;57.95;38.92;71.28;;
78074;Laerm;67283;50.960;13.856;2024-02-14T12:47:20;54.97;38.83;68.53;;
78074;Laerm;67283;50.960;13.856;2024-02-14T12:49:47;57.57;39.10;70.31;;
78074;Laerm;67283;50.960;13.856;2024-02-14T12:52:13;62.72;40.46;76.43;;
78074;Laerm;67283;50.960;13.856;2024-02-14T12:54:39;55.01;38.38;68.03;;
78074;Laerm;67283;50.960;13.856;2024-02-14T12:57:04;61.15;42.25;73.40;;
78074;Laerm;67283;50.960;13.856;2024-02-14T12:59:31;59.36;39.98;70.51;;
78074;Laerm;67283;50.960;13.856;2024-02-14T13:01:57;59.17;39.21;69.94;;
78074;Laerm;67283;50.960;13.856;2024-02-14T13:04:22;59.53;40.67;70.61;;
78074;Laerm;67283;50.960;13.856;2024-02-14T13:06:48;60.95;40.08;71.22;;
78074;Laerm;67283;50.960;13.856;2024-02-14T13:09:14;59.09;38.15;69.71;;
78074;Laerm;67283;50.960;13.856;2024-02-14T13:11:39;58.01;38.05;69.70;;
78074;Laerm;67283;50.960;13.856;2024-02-14T13:14:06;60.12;38.80;74.19;;
78074;Laerm;67283;50.960;13.856;2024-02-14T13:16:31;58.56;38.51;70.49;;
78074;Laerm;67283;50.960;13.856;2024-02-14T13:18:57;61.00;39.37;69.69;;
78074;Laerm;67283;50.960;13.856;2024-02-14T13:21:22;58.71;40.17;70.25;;
78074;Laerm;67283;50.960;13.856;2024-02-14T13:23:47;59.58;42.46;69.50;;
78074;Laerm;67283;50.960;13.856;2024-02-14T13:26:13;61.03;39.00;75.47;;